Time;durP1;ratioP1;P1;durP2;ratioP2;P2;SDS_P1;SDS_P2;PMS_P1;PMS_P2;Temp;Humidity;BMP_temperature;BMP_pressure;BME280_temperature;BME280_humidity;BME280_pressure;Samples;Min_cycle;Max_cycle;Signal;HPM_P1;HPM_P2
2022/07/28 00:00:51;;;;;;;1.00;1.00;;;;;;;;;;4973415;28;20434;-78
2022/07/28 00:03:17;;;;;;;1.80;1.33;;;;;;;;;;4973000;28;20437;-77
2022/07/28 00:05:43;;;;;;;1.10;1.10;;;;;;;;;;4973455;28;20418;-82
2022/07/28 00:08:10;;;;;;;3.80;1.60;;;;;;;;;;4972975;28;20426;-78
2022/07/28 00:10:36;;;;;;;4.00;1.40;;;;;;;;;;4973435;28;20432;-83
2022/07/28 00:13:03;;;;;;;4.77;1.47;;;;;;;;;;4972472;28;20580;-76
2022/07/28 00:15:28;;;;;;;2.77;1.10;;;;;;;;;;4973083;28;20445;-77
2022/07/28 00:17:54;;;;;;;1.73;1.10;;;;;;;;;;4973073;28;20442;-75
2022/07/28 00:20:20;;;;;;;2.07;1.20;;;;;;;;;;4972634;28;20528;-74
2022/07/28 00:22:46;;;;;;;2.40;1.73;;;;;;;;;;4972898;28;20504;-78
2022/07/28 00:25:12;;;;;;;0.77;0.77;;;;;;;;;;4972963;28;20949;-83
2022/07/28 00:27:38;;;;;;;1.30;1.30;;;;;;;;;;4974195;28;20445;-82
2022/07/28 00:30:08;;;;;;;3.40;1.00;;;;;;;;;;4976912;28;20438;-81
2022/07/28 00:32:34;;;;;;;2.00;1.50;;;;;;;;;;4976862;28;20500;-82
2022/07/28 00:35:00;;;;;;;1.43;1.10;;;;;;;;;;4976979;28;20918;-78
2022/07/28 00:37:26;;;;;;;2.03;1.63;;;;;;;;;;4976546;28;20434;-83
2022/07/28 00:39:52;;;;;;;2.50;0.93;;;;;;;;;;4976945;28;20513;-81
2022/07/28 00:42:19;;;;;;;1.57;1.47;;;;;;;;;;4976125;28;20533;-81
2022/07/28 00:44:45;;;;;;;1.30;1.30;;;;;;;;;;4976793;28;20915;-82
2022/07/28 00:47:11;;;;;;;6.03;0.90;;;;;;;;;;4976581;28;20438;-80
2022/07/28 00:49:37;;;;;;;1.23;1.23;;;;;;;;;;4976711;28;20465;-78
2022/07/28 00:52:08;;;;;;;1.33;1.20;;;;;;;;;;4975784;28;20445;-76
2022/07/28 00:54:34;;;;;;;1.37;1.27;;;;;;;;;;4976591;28;20483;-81
2022/07/28 00:57:00;;;;;;;1.00;1.00;;;;;;;;;;4976741;28;20926;-80
2022/07/28 00:59:26;;;;;;;1.40;1.30;;;;;;;;;;4976149;28;20430;-77
2022/07/28 01:01:53;;;;;;;5.90;1.50;;;;;;;;;;4976398;28;20770;-81
2022/07/28 01:04:19;;;;;;;1.10;1.10;;;;;;;;;;4976517;28;20437;-81
2022/07/28 01:07:02;;;;;;;1.27;1.17;;;;;;;;;;4976257;28;20533;-82
2022/07/28 01:09:41;;;;;;;2.40;2.20;;;;;;;;;;4976241;28;20434;-79
2022/07/28 01:12:26;;;;;;;2.10;1.47;;;;;;;;;;4980616;28;20430;-81
2022/07/28 01:14:57;;;;;;;1.90;1.40;;;;;;;;;;4974536;28;20453;-78
2022/07/28 01:17:26;;;;;;;1.23;1.17;;;;;;;;;;4975512;28;20521;-79
2022/07/28 01:19:52;;;;;;;1.30;1.20;;;;;;;;;;4975912;28;20521;-80
2022/07/28 01:22:21;;;;;;;3.70;1.00;;;;;;;;;;4975741;28;20476;-81
2022/07/28 01:24:49;;;;;;;1.13;1.13;;;;;;;;;;4976094;28;20193;-79
2022/07/28 01:27:23;;;;;;;1.17;1.17;;;;;;;;;;4991009;28;20942;-80
2022/07/28 01:29:55;;;;;;;0.90;0.90;;;;;;;;;;4975845;28;20433;-79
2022/07/28 01:32:24;;;;;;;0.90;0.90;;;;;;;;;;4975704;28;20489;-75
2022/07/28 01:34:50;;;;;;;1.03;1.03;;;;;;;;;;4976271;28;20433;-79
2022/07/28 01:37:22;;;;;;;1.83;1.10;;;;;;;;;;4975233;28;20590;-80
2022/07/28 01:39:51;;;;;;;0.80;0.80;;;;;;;;;;4975707;28;20190;-82
2022/07/28 01:42:17;;;;;;;1.00;1.00;;;;;;;;;;4975241;28;20983;-77
2022/07/28 01:44:45;;;;;;;0.87;0.87;;;;;;;;;;4975777;28;20528;-78
2022/07/28 01:47:12;;;;;;;2.23;1.57;;;;;;;;;;4974494;28;20426;-80
2022/07/28 01:49:39;;;;;;;1.70;0.90;;;;;;;;;;4975464;28;20434;-80
2022/07/28 01:52:07;;;;;;;1.07;1.03;;;;;;;;;;4974743;28;20444;-80
2022/07/28 01:54:36;;;;;;;1.43;1.43;;;;;;;;;;4975478;28;20576;-77
2022/07/28 01:57:03;;;;;;;2.43;0.80;;;;;;;;;;4989050;28;20472;-80
2022/07/28 01:59:30;;;;;;;2.30;1.17;;;;;;;;;;4975386;28;20529;-79
2022/07/28 02:01:56;;;;;;;3.17;1.20;;;;;;;;;;4974766;28;21040;-75
2022/07/28 02:04:23;;;;;;;2.40;1.40;;;;;;;;;;4975522;28;20430;-75
2022/07/28 02:06:50;;;;;;;1.70;0.93;;;;;;;;;;4975222;28;20497;-75
2022/07/28 02:09:16;;;;;;;2.27;1.20;;;;;;;;;;4975440;28;20460;-80
2022/07/28 02:11:44;;;;;;;1.60;1.03;;;;;;;;;;4975024;28;20422;-80
2022/07/28 02:14:12;;;;;;;1.10;1.10;;;;;;;;;;4974648;28;20536;-77
2022/07/28 02:16:40;;;;;;;1.07;0.97;;;;;;;;;;4974982;28;20465;-80
2022/07/28 02:19:07;;;;;;;0.90;0.90;;;;;;;;;;4974972;28;20463;-79
2022/07/28 02:21:34;;;;;;;1.33;0.93;;;;;;;;;;4974122;28;20853;-79
2022/07/28 02:24:00;;;;;;;1.13;1.03;;;;;;;;;;4973075;28;20438;-79
2022/07/28 02:26:28;;;;;;;1.97;1.37;;;;;;;;;;4975267;28;20778;-80
2022/07/28 02:28:56;;;;;;;1.00;1.00;;;;;;;;;;4974883;28;20457;-79
2022/07/28 02:31:24;;;;;;;2.87;1.40;;;;;;;;;;4970567;28;20422;-77
2022/07/28 02:33:51;;;;;;;1.50;1.27;;;;;;;;;;4970644;28;20509;-81
2022/07/28 02:36:19;;;;;;;0.83;0.83;;;;;;;;;;4974070;28;20441;-82
2022/07/28 02:38:46;;;;;;;1.17;1.07;;;;;;;;;;4974753;28;20438;-81
2022/07/28 02:41:15;;;;;;;2.50;1.03;;;;;;;;;;4974799;28;20430;-81
2022/07/28 02:43:42;;;;;;;0.90;0.90;;;;;;;;;;4974074;28;20430;-78
2022/07/28 02:46:10;;;;;;;1.20;1.10;;;;;;;;;;4974434;28;20557;-78
2022/07/28 02:48:38;;;;;;;1.53;1.03;;;;;;;;;;4974655;28;20426;-77
2022/07/28 02:51:04;;;;;;;2.00;0.80;;;;;;;;;;4973335;28;20881;-79
2022/07/28 02:53:31;;;;;;;4.63;0.90;;;;;;;;;;4973713;28;21033;-76
2022/07/28 02:55:57;;;;;;;1.17;1.07;;;;;;;;;;4974284;28;20497;-79
2022/07/28 02:58:24;;;;;;;3.60;1.10;;;;;;;;;;4974182;28;20422;-76
2022/07/28 03:00:51;;;;;;;1.53;1.17;;;;;;;;;;4974203;28;20567;-76
2022/07/28 03:03:17;;;;;;;2.10;0.80;;;;;;;;;;4974057;28;20422;-78
2022/07/28 03:05:44;;;;;;;2.93;1.80;;;;;;;;;;4973518;28;20453;-78
2022/07/28 03:08:10;;;;;;;5.33;0.90;;;;;;;;;;4974328;28;20481;-80
2022/07/28 03:10:36;;;;;;;3.07;1.00;;;;;;;;;;4973930;28;20421;-78
2022/07/28 03:13:05;;;;;;;0.93;0.87;;;;;;;;;;4973395;28;20485;-75
2022/07/28 03:15:31;;;;;;;1.10;1.00;;;;;;;;;;4989166;28;20441;-75
2022/07/28 03:17:57;;;;;;;1.70;0.90;;;;;;;;;;4973533;28;20508;-77
2022/07/28 03:20:23;;;;;;;1.07;0.83;;;;;;;;;;4973696;28;20533;-76
2022/07/28 03:22:49;;;;;;;2.47;0.93;;;;;;;;;;4972264;28;21033;-74
2022/07/28 03:25:16;;;;;;;1.80;1.60;;;;;;;;;;4972815;28;20551;-77
2022/07/28 03:27:45;;;;;;;0.90;0.90;;;;;;;;;;4973841;28;20193;-83
2022/07/28 03:30:12;;;;;;;2.13;1.93;;;;;;;;;;4973875;28;20798;-80
2022/07/28 03:32:41;;;;;;;1.23;0.63;;;;;;;;;;4988385;28;20766;-80
2022/07/28 03:35:07;;;;;;;2.50;0.80;;;;;;;;;;4973782;28;20885;-75
2022/07/28 03:37:37;;;;;;;1.10;0.97;;;;;;;;;;4973858;28;20426;-80
2022/07/28 03:40:04;;;;;;;1.07;0.87;;;;;;;;;;4973660;28;20537;-82
2022/07/28 03:42:30;;;;;;;2.30;1.13;;;;;;;;;;4958652;28;20430;-79
2022/07/28 03:44:57;;;;;;;0.90;0.90;;;;;;;;;;4973453;28;20444;-78
2022/07/28 03:47:23;;;;;;;4.00;1.20;;;;;;;;;;4973733;28;20509;-79
2022/07/28 03:49:50;;;;;;;0.87;0.87;;;;;;;;;;4972281;28;20433;-75
2022/07/28 03:52:16;;;;;;;2.83;1.17;;;;;;;;;;4973320;28;20512;-83
2022/07/28 03:54:42;;;;;;;1.90;1.03;;;;;;;;;;4973685;28;20577;-83
2022/07/28 03:57:08;;;;;;;1.00;1.00;;;;;;;;;;4984490;28;20485;-81
2022/07/28 03:59:34;;;;;;;0.80;0.80;;;;;;;;;;4973146;28;20437;-80
2022/07/28 04:02:00;;;;;;;1.17;1.17;;;;;;;;;;4972823;28;20438;-80
2022/07/28 04:04:26;;;;;;;1.50;0.93;;;;;;;;;;4972713;28;20439;-83
2022/07/28 04:06:52;;;;;;;5.90;1.10;;;;;;;;;;4970795;28;20436;-82
2022/07/28 04:09:18;;;;;;;1.17;1.07;;;;;;;;;;4977242;28;20438;-82
2022/07/28 04:11:44;;;;;;;1.23;1.23;;;;;;;;;;4976666;28;20670;-81
2022/07/28 04:14:10;;;;;;;2.40;1.30;;;;;;;;;;4975285;28;20855;-82
2022/07/28 04:16:36;;;;;;;6.33;2.00;;;;;;;;;;4976748;28;20422;-80
2022/07/28 04:19:02;;;;;;;1.70;1.60;;;;;;;;;;4977057;28;20508;-81
2022/07/28 04:21:28;;;;;;;1.70;1.60;;;;;;;;;;4976395;28;20175;-81
2022/07/28 04:23:54;;;;;;;5.03;1.30;;;;;;;;;;4976511;28;20433;-80
2022/07/28 04:26:20;;;;;;;7.37;1.70;;;;;;;;;;4976550;28;20878;-82
2022/07/28 04:28:46;;;;;;;2.47;1.57;;;;;;;;;;4977056;28;20953;-83
2022/07/28 04:31:12;;;;;;;4.10;1.40;;;;;;;;;;4976261;28;20433;-81
2022/07/28 04:33:39;;;;;;;1.57;1.47;;;;;;;;;;4976035;28;20481;-81
2022/07/28 04:36:05;;;;;;;6.00;2.57;;;;;;;;;;4961147;28;20942;-82
2022/07/28 04:38:31;;;;;;;2.30;1.60;;;;;;;;;;4977024;28;20591;-82
2022/07/28 04:40:57;;;;;;;2.40;2.30;;;;;;;;;;4976063;28;20525;-83
2022/07/28 04:43:23;;;;;;;1.70;1.60;;;;;;;;;;4975981;28;20446;-83
2022/07/28 04:45:53;;;;;;;2.70;1.40;;;;;;;;;;4976692;28;20436;-83
2022/07/28 04:48:18;;;;;;;2.47;1.17;;;;;;;;;;4991226;28;20816;-83
2022/07/28 04:50:45;;;;;;;3.40;1.30;;;;;;;;;;4975651;28;20434;-84
2022/07/28 04:53:11;;;;;;;1.50;1.40;;;;;;;;;;4975693;28;20485;-83
2022/07/28 04:55:40;;;;;;;2.03;1.90;;;;;;;;;;4975143;28;20445;-82
2022/07/28 04:58:06;;;;;;;5.40;2.00;;;;;;;;;;4975637;28;20453;-81
2022/07/28 05:00:33;;;;;;;3.53;1.63;;;;;;;;;;4976760;28;20410;-82
2022/07/28 05:03:01;;;;;;;2.87;1.70;;;;;;;;;;4975285;28;20434;-82
2022/07/28 05:05:27;;;;;;;2.00;1.30;;;;;;;;;;4975567;28;20522;-84
2022/07/28 05:07:53;;;;;;;1.50;1.40;;;;;;;;;;4976438;28;20918;-78
2022/07/28 05:10:19;;;;;;;1.50;1.50;;;;;;;;;;4976634;28;20420;-75
2022/07/28 05:12:46;;;;;;;1.93;1.73;;;;;;;;;;4976160;28;20469;-71
2022/07/28 05:15:12;;;;;;;1.10;1.00;;;;;;;;;;4975661;28;20488;-72
2022/07/28 05:17:38;;;;;;;1.93;1.70;;;;;;;;;;4975983;28;20969;-73
2022/07/28 05:20:07;;;;;;;3.27;1.47;;;;;;;;;;4975452;28;20473;-72
2022/07/28 05:22:47;;;;;;;1.30;1.20;;;;;;;;;;4975512;28;20430;-73
2022/07/28 05:25:17;;;;;;;2.23;2.13;;;;;;;;;;4976371;28;20471;-72
2022/07/28 05:27:43;;;;;;;1.30;1.20;;;;;;;;;;4973930;28;20438;-74
2022/07/28 05:30:10;;;;;;;5.80;1.50;;;;;;;;;;4976304;28;20406;-72
2022/07/28 05:32:36;;;;;;;0.90;0.90;;;;;;;;;;4973397;28;20473;-73
2022/07/28 05:35:02;;;;;;;2.63;0.97;;;;;;;;;;4975109;28;20434;-76
2022/07/28 05:37:28;;;;;;;1.17;1.10;;;;;;;;;;4975665;28;20410;-75
2022/07/28 05:39:54;;;;;;;4.20;1.20;;;;;;;;;;4973997;28;20438;-75
2022/07/28 05:42:20;;;;;;;5.70;1.03;;;;;;;;;;4974766;28;20922;-72
2022/07/28 05:44:46;;;;;;;2.67;1.20;;;;;;;;;;4975442;28;20569;-74
2022/07/28 05:47:11;;;;;;;2.70;1.43;;;;;;;;;;4975821;28;20182;-72
2022/07/28 05:49:38;;;;;;;2.33;1.43;;;;;;;;;;4989947;28;20433;-75
2022/07/28 05:52:04;;;;;;;3.33;1.20;;;;;;;;;;4975291;28;20187;-72
2022/07/28 05:54:29;;;;;;;8.50;1.13;;;;;;;;;;4975100;28;21228;-73
2022/07/28 05:56:55;;;;;;;3.07;1.30;;;;;;;;;;4990358;28;20481;-73
2022/07/28 05:59:21;;;;;;;2.97;1.17;;;;;;;;;;4975443;28;20426;-76
2022/07/28 06:01:47;;;;;;;4.80;1.80;;;;;;;;;;4974733;28;20189;-73
2022/07/28 06:04:13;;;;;;;4.40;1.20;;;;;;;;;;4975123;28;20189;-79
2022/07/28 06:06:39;;;;;;;0.87;0.87;;;;;;;;;;4974777;28;20194;-79
2022/07/28 06:09:05;;;;;;;3.23;1.80;;;;;;;;;;4975378;28;20432;-78
2022/07/28 06:11:31;;;;;;;1.40;1.40;;;;;;;;;;4974743;28;20553;-77
2022/07/28 06:13:57;;;;;;;4.63;1.30;;;;;;;;;;4974575;28;20489;-78
2022/07/28 06:16:23;;;;;;;1.90;1.33;;;;;;;;;;4975145;28;20952;-78
2022/07/28 06:18:49;;;;;;;1.20;1.20;;;;;;;;;;4975187;28;20250;-79
2022/07/28 06:21:15;;;;;;;1.00;0.90;;;;;;;;;;4974383;28;20499;-79
2022/07/28 06:23:41;;;;;;;2.80;1.57;;;;;;;;;;4974317;28;20852;-77
2022/07/28 06:26:07;;;;;;;1.27;1.27;;;;;;;;;;4974031;28;20698;-79
2022/07/28 06:28:33;;;;;;;3.07;1.00;;;;;;;;;;4974704;28;20460;-79
2022/07/28 06:30:59;;;;;;;0.80;0.80;;;;;;;;;;4975038;28;20210;-78
2022/07/28 06:33:25;;;;;;;13.67;1.60;;;;;;;;;;4973892;28;20485;-79
2022/07/28 06:35:51;;;;;;;8.43;1.20;;;;;;;;;;4974570;28;20450;-79
2022/07/28 06:38:19;;;;;;;6.33;1.40;;;;;;;;;;4973763;28;20917;-79
2022/07/28 06:40:45;;;;;;;4.90;1.30;;;;;;;;;;4989714;28;20422;-78
2022/07/28 06:43:13;;;;;;;2.57;1.27;;;;;;;;;;4973364;28;20496;-78
2022/07/28 06:45:39;;;;;;;2.83;1.43;;;;;;;;;;4974508;28;20434;-79
2022/07/28 06:48:06;;;;;;;2.50;1.47;;;;;;;;;;4973970;28;20433;-79
2022/07/28 06:50:32;;;;;;;1.17;1.00;;;;;;;;;;4974349;28;20765;-79
2022/07/28 06:52:58;;;;;;;2.00;1.10;;;;;;;;;;4973591;28;20478;-79
2022/07/28 06:55:25;;;;;;;1.57;1.20;;;;;;;;;;4974523;28;20484;-78
2022/07/28 06:57:51;;;;;;;3.13;1.40;;;;;;;;;;4973976;28;20460;-80
2022/07/28 07:00:17;;;;;;;3.07;1.03;;;;;;;;;;4974344;28;20445;-79
2022/07/28 07:02:43;;;;;;;2.03;1.73;;;;;;;;;;4973941;28;20473;-79
2022/07/28 07:05:10;;;;;;;2.47;1.90;;;;;;;;;;4973695;28;20461;-72
2022/07/28 07:07:36;;;;;;;1.30;1.10;;;;;;;;;;4974144;28;20429;-79
2022/07/28 07:10:03;;;;;;;2.30;1.23;;;;;;;;;;4974086;28;20976;-77
2022/07/28 07:12:29;;;;;;;3.50;1.40;;;;;;;;;;4972499;28;20512;-78
2022/07/28 07:14:55;;;;;;;19.77;1.90;;;;;;;;;;4973725;28;20478;-79
2022/07/28 07:17:21;;;;;;;1.27;1.07;;;;;;;;;;4974178;28;20422;-79
2022/07/28 07:19:47;;;;;;;1.60;1.60;;;;;;;;;;4968427;28;20431;-79
2022/07/28 07:22:13;;;;;;;3.37;1.43;;;;;;;;;;4972132;28;20273;-80
2022/07/28 07:24:39;;;;;;;2.53;1.73;;;;;;;;;;4973917;28;20654;-77
2022/07/28 07:27:05;;;;;;;1.50;1.07;;;;;;;;;;4973663;28;20425;-79
2022/07/28 07:29:31;;;;;;;4.10;1.43;;;;;;;;;;4973737;28;20430;-80
2022/07/28 07:31:57;;;;;;;1.47;1.40;;;;;;;;;;4972952;28;20426;-75
2022/07/28 07:34:23;;;;;;;5.43;1.50;;;;;;;;;;4973293;28;20513;-78
2022/07/28 07:36:49;;;;;;;2.50;1.33;;;;;;;;;;4973909;28;20508;-77
2022/07/28 07:39:15;;;;;;;1.60;1.07;;;;;;;;;;4973457;28;20437;-79
2022/07/28 07:41:41;;;;;;;3.80;1.50;;;;;;;;;;4973861;28;20778;-78
2022/07/28 07:44:08;;;;;;;1.80;1.07;;;;;;;;;;4973554;28;20663;-77
2022/07/28 07:46:35;;;;;;;1.10;1.10;;;;;;;;;;4973554;28;20432;-79
2022/07/28 07:49:01;;;;;;;1.50;1.27;;;;;;;;;;4973577;28;20454;-79
2022/07/28 07:51:27;;;;;;;1.80;1.23;;;;;;;;;;4973451;28;20457;-78
2022/07/28 07:53:53;;;;;;;1.90;1.80;;;;;;;;;;4973373;28;20486;-80
2022/07/28 07:56:19;;;;;;;4.43;1.17;;;;;;;;;;4972784;28;20422;-79
2022/07/28 07:58:45;;;;;;;0.97;0.97;;;;;;;;;;4973208;28;20706;-74
2022/07/28 08:01:11;;;;;;;1.43;1.40;;;;;;;;;;4973189;28;20430;-77
2022/07/28 08:03:38;;;;;;;14.37;2.37;;;;;;;;;;4972598;28;20504;-78
2022/07/28 08:06:04;;;;;;;1.27;1.27;;;;;;;;;;4971974;28;20422;-79
2022/07/28 08:08:30;;;;;;;1.13;1.13;;;;;;;;;;4973346;28;20440;-78
2022/07/28 08:10:56;;;;;;;4.50;1.13;;;;;;;;;;4973177;28;20417;-75
2022/07/28 08:13:22;;;;;;;1.47;1.37;;;;;;;;;;4973184;28;20568;-79
2022/07/28 08:15:48;;;;;;;3.10;1.30;;;;;;;;;;4973406;28;20424;-78
2022/07/28 08:18:14;;;;;;;1.60;1.43;;;;;;;;;;4973302;28;20561;-78
2022/07/28 08:20:40;;;;;;;4.10;1.43;;;;;;;;;;4973048;28;20870;-75
2022/07/28 08:23:06;;;;;;;2.00;1.40;;;;;;;;;;4971737;28;20428;-77
2022/07/28 08:25:35;;;;;;;1.50;1.40;;;;;;;;;;4973434;28;20967;-78
2022/07/28 08:28:01;;;;;;;1.10;1.10;;;;;;;;;;4972773;28;20430;-74
2022/07/28 08:30:27;;;;;;;1.17;1.17;;;;;;;;;;4969579;28;20497;-82
2022/07/28 08:32:53;;;;;;;1.33;1.33;;;;;;;;;;4974811;28;20257;-77
2022/07/28 08:35:19;;;;;;;1.63;1.53;;;;;;;;;;4974338;28;20191;-77
2022/07/28 08:37:45;;;;;;;4.47;1.40;;;;;;;;;;4973640;28;20178;-75
2022/07/28 08:40:14;;;;;;;2.13;1.80;;;;;;;;;;4973489;28;20186;-82
2022/07/28 08:42:58;;;;;;;4.63;1.90;;;;;;;;;;4972924;28;20462;-80
2022/07/28 08:45:25;;;;;;;1.50;1.50;;;;;;;;;;4973519;28;20476;-78
2022/07/28 08:47:51;;;;;;;2.03;1.40;;;;;;;;;;4973672;28;20492;-78
2022/07/28 08:50:22;;;;;;;2.40;1.87;;;;;;;;;;4975941;28;20433;-66
2022/07/28 08:52:49;;;;;;;1.70;1.47;;;;;;;;;;4976601;28;20473;-69
2022/07/28 08:55:15;;;;;;;3.10;1.90;;;;;;;;;;4976676;28;20524;-70
2022/07/28 08:57:42;;;;;;;3.30;1.80;;;;;;;;;;4976923;28;20425;-69
2022/07/28 09:00:09;;;;;;;8.10;1.43;;;;;;;;;;4976207;28;20480;-69
2022/07/28 09:02:37;;;;;;;1.47;1.47;;;;;;;;;;4976387;28;20418;-70
2022/07/28 09:05:03;;;;;;;1.63;1.63;;;;;;;;;;4976537;28;20434;-70
2022/07/28 09:07:30;;;;;;;6.57;1.87;;;;;;;;;;4976554;28;20557;-71
2022/07/28 09:09:56;;;;;;;20.87;3.50;;;;;;;;;;4976697;28;20430;-69
2022/07/28 09:12:22;;;;;;;2.00;1.23;;;;;;;;;;4976206;28;20440;-70
2022/07/28 09:14:48;;;;;;;2.03;1.83;;;;;;;;;;4976402;28;20917;-78
2022/07/28 09:17:14;;;;;;;11.10;1.43;;;;;;;;;;4976592;28;20424;-75
2022/07/28 09:19:40;;;;;;;34.77;2.77;;;;;;;;;;4976285;28;20540;-74
2022/07/28 09:22:06;;;;;;;6.17;1.30;;;;;;;;;;4976086;28;20781;-75
2022/07/28 09:24:38;;;;;;;6.80;2.20;;;;;;;;;;4976495;28;20424;-76
2022/07/28 09:27:08;;;;;;;5.60;1.70;;;;;;;;;;4976319;28;20501;-78
2022/07/28 09:29:35;;;;;;;1.60;1.50;;;;;;;;;;4976338;28;20503;-76
2022/07/28 09:32:01;;;;;;;2.03;1.87;;;;;;;;;;4975975;28;20445;-75
2022/07/28 09:34:28;;;;;;;1.97;1.50;;;;;;;;;;4975915;28;20477;-76
2022/07/28 09:36:54;;;;;;;2.53;1.80;;;;;;;;;;4974832;28;20434;-77
2022/07/28 09:39:33;;;;;;;4.00;1.47;;;;;;;;;;4976172;28;20426;-80
2022/07/28 09:41:59;;;;;;;3.97;1.80;;;;;;;;;;4975352;28;20430;-76
2022/07/28 09:44:26;;;;;;;5.97;1.33;;;;;;;;;;4976111;28;20480;-76
2022/07/28 09:46:52;;;;;;;5.10;1.80;;;;;;;;;;4975481;28;20433;-73
2022/07/28 09:49:18;;;;;;;3.40;1.97;;;;;;;;;;4975643;28;20465;-75
2022/07/28 09:52:01;;;;;;;1.73;1.70;;;;;;;;;;4976095;28;20557;-77
2022/07/28 09:54:27;;;;;;;1.87;1.77;;;;;;;;;;4975669;28;20588;-75
2022/07/28 09:56:53;;;;;;;1.50;1.40;;;;;;;;;;4975565;28;20476;-76
2022/07/28 09:59:20;;;;;;;5.70;1.57;;;;;;;;;;4974739;28;20492;-73
2022/07/28 10:02:04;;;;;;;2.73;1.80;;;;;;;;;;4974634;28;20517;-74
2022/07/28 10:04:33;;;;;;;4.10;2.07;;;;;;;;;;4975401;28;20453;-73
2022/07/28 10:07:04;;;;;;;8.63;1.90;;;;;;;;;;4975628;28;20922;-73
2022/07/28 10:09:31;;;;;;;42.57;5.40;;;;;;;;;;4975525;28;20962;-76
2022/07/28 10:12:16;;;;;;;4.63;2.57;;;;;;;;;;4972247;28;20457;-79
2022/07/28 10:14:42;;;;;;;1.90;1.70;;;;;;;;;;4974633;28;20429;-74
2022/07/28 10:17:09;;;;;;;3.03;2.20;;;;;;;;;;4975266;28;20410;-74
2022/07/28 10:19:36;;;;;;;1.73;1.73;;;;;;;;;;4974588;28;20426;-75
2022/07/28 10:22:02;;;;;;;1.50;1.40;;;;;;;;;;4974477;28;20797;-74
2022/07/28 10:24:30;;;;;;;2.47;1.53;;;;;;;;;;4974695;28;20425;-74
2022/07/28 10:26:57;;;;;;;1.63;1.53;;;;;;;;;;4975141;28;20560;-74
2022/07/28 10:29:23;;;;;;;1.37;1.37;;;;;;;;;;4974581;28;20500;-75
2022/07/28 10:31:53;;;;;;;1.50;1.50;;;;;;;;;;4974612;28;20490;-74
2022/07/28 10:34:21;;;;;;;2.20;2.10;;;;;;;;;;4974139;28;21072;-74
2022/07/28 10:36:49;;;;;;;1.70;1.70;;;;;;;;;;4974596;28;20430;-74
2022/07/28 10:39:19;;;;;;;2.20;2.00;;;;;;;;;;4989757;28;20930;-74
2022/07/28 10:41:45;;;;;;;1.70;1.70;;;;;;;;;;4974165;28;20457;-74
2022/07/28 10:44:17;;;;;;;4.47;2.23;;;;;;;;;;4974007;28;20429;-74
2022/07/28 10:46:43;;;;;;;5.77;1.97;;;;;;;;;;4974405;28;20809;-74
2022/07/28 10:49:11;;;;;;;3.63;2.07;;;;;;;;;;4974473;28;20472;-75
2022/07/28 10:51:41;;;;;;;2.20;2.10;;;;;;;;;;4973887;28;20430;-75
2022/07/28 10:54:10;;;;;;;2.00;1.90;;;;;;;;;;4973451;28;20854;-75
2022/07/28 10:56:47;;;;;;;8.03;2.37;;;;;;;;;;4973514;28;20434;-74
2022/07/28 10:59:13;;;;;;;1.73;1.70;;;;;;;;;;4960077;28;20437;-75
2022/07/28 11:01:40;;;;;;;3.23;2.53;;;;;;;;;;4971789;28;20915;-73
2022/07/28 11:04:06;;;;;;;2.13;1.93;;;;;;;;;;4973619;28;20182;-77
2022/07/28 11:06:34;;;;;;;2.87;2.57;;;;;;;;;;4973677;28;20915;-75
2022/07/28 11:09:20;;;;;;;2.30;2.17;;;;;;;;;;4974109;28;20430;-74
2022/07/28 11:11:48;;;;;;;2.40;2.30;;;;;;;;;;4973294;28;20544;-74
2022/07/28 11:14:24;;;;;;;1.60;1.60;;;;;;;;;;4973296;28;20485;-73
2022/07/28 11:16:50;;;;;;;3.90;2.53;;;;;;;;;;4973884;28;20429;-75
2022/07/28 11:19:17;;;;;;;3.60;2.40;;;;;;;;;;4973662;28;20422;-74
2022/07/28 11:22:02;;;;;;;2.50;2.10;;;;;;;;;;4973942;28;20446;-74
2022/07/28 11:24:48;;;;;;;2.70;2.60;;;;;;;;;;4973900;28;20414;-74
2022/07/28 11:27:14;;;;;;;3.10;1.50;;;;;;;;;;4973711;28;20433;-75
2022/07/28 11:29:46;;;;;;;4.20;2.07;;;;;;;;;;4973819;28;20414;-74
2022/07/28 11:32:12;;;;;;;1.80;1.80;;;;;;;;;;4973181;28;20437;-79
2022/07/28 11:34:56;;;;;;;3.07;2.13;;;;;;;;;;4972877;28;20527;-80
2022/07/28 11:37:22;;;;;;;6.00;2.13;;;;;;;;;;4974004;28;20468;-77
2022/07/28 11:39:48;;;;;;;1.97;1.90;;;;;;;;;;4973718;28;20430;-75
2022/07/28 11:42:34;;;;;;;3.97;2.20;;;;;;;;;;4972036;28;20274;-74
2022/07/28 11:45:19;;;;;;;8.17;2.40;;;;;;;;;;4972043;28;20441;-78
2022/07/28 11:47:45;;;;;;;2.20;2.10;;;;;;;;;;4973594;28;20513;-74
2022/07/28 11:50:12;;;;;;;2.40;1.90;;;;;;;;;;4971637;28;20528;-76
2022/07/28 11:52:38;;;;;;;3.37;2.10;;;;;;;;;;4972650;28;20987;-77
2022/07/28 11:55:05;;;;;;;1.80;1.60;;;;;;;;;;4973862;28;20478;-76
2022/07/28 11:57:40;;;;;;;2.20;2.10;;;;;;;;;;4973973;28;20481;-79
2022/07/28 12:00:06;;;;;;;3.93;2.30;;;;;;;;;;4973596;28;20413;-74
2022/07/28 12:02:33;;;;;;;3.80;2.03;;;;;;;;;;4973519;28;20437;-74
2022/07/28 12:05:01;;;;;;;1.90;1.80;;;;;;;;;;4976914;28;20425;-76
2022/07/28 12:07:47;;;;;;;1.60;1.57;;;;;;;;;;4973861;28;20496;-69
2022/07/28 12:10:27;;;;;;;1.83;1.73;;;;;;;;;;4973524;28;21040;-75
2022/07/28 12:12:54;;;;;;;6.63;3.10;;;;;;;;;;4973177;28;20891;-74
2022/07/28 12:15:21;;;;;;;3.70;2.60;;;;;;;;;;4967862;28;20473;-74
2022/07/28 12:17:47;;;;;;;2.90;2.70;;;;;;;;;;4973940;28;20969;-74
2022/07/28 12:20:15;;;;;;;2.67;2.57;;;;;;;;;;4972411;28;20441;-74
2022/07/28 12:22:48;;;;;;;2.40;2.10;;;;;;;;;;4973318;28;20841;-74
2022/07/28 12:25:14;;;;;;;2.60;2.50;;;;;;;;;;4976904;28;20537;-74
2022/07/28 12:27:40;;;;;;;2.53;2.33;;;;;;;;;;4976182;28;20965;-73
2022/07/28 12:30:07;;;;;;;1.77;1.70;;;;;;;;;;4977292;28;20775;-75
2022/07/28 12:32:36;;;;;;;3.33;2.40;;;;;;;;;;4977001;28;20417;-74
2022/07/28 12:35:02;;;;;;;2.07;2.00;;;;;;;;;;4977041;28;20967;-74
2022/07/28 12:37:29;;;;;;;1.40;1.30;;;;;;;;;;4977048;28;20414;-75
2022/07/28 12:39:56;;;;;;;5.07;2.20;;;;;;;;;;4976719;28;20838;-74
2022/07/28 12:42:23;;;;;;;4.00;2.20;;;;;;;;;;4973536;28;20929;-74
2022/07/28 12:44:52;;;;;;;7.63;2.57;;;;;;;;;;4976466;28;20810;-74
2022/07/28 12:47:25;;;;;;;2.57;2.40;;;;;;;;;;4976719;28;20471;-74
2022/07/28 12:50:07;;;;;;;1.87;1.87;;;;;;;;;;4976358;28;20430;-74
2022/07/28 12:52:33;;;;;;;2.27;2.27;;;;;;;;;;4976471;28;20425;-74
2022/07/28 12:54:59;;;;;;;2.53;2.33;;;;;;;;;;4975354;28;20480;-75
2022/07/28 12:57:41;;;;;;;2.10;2.00;;;;;;;;;;4976218;28;20190;-75
2022/07/28 13:00:07;;;;;;;1.97;1.87;;;;;;;;;;4974969;28;20504;-74
2022/07/28 13:02:37;;;;;;;2.30;2.20;;;;;;;;;;4976481;28;20869;-74
2022/07/28 13:05:06;;;;;;;2.50;2.40;;;;;;;;;;4976339;28;20466;-74
2022/07/28 13:07:32;;;;;;;3.17;2.53;;;;;;;;;;4991875;28;21012;-74
2022/07/28 13:10:02;;;;;;;6.07;2.43;;;;;;;;;;4976436;28;20520;-74
2022/07/28 13:12:31;;;;;;;2.40;2.30;;;;;;;;;;4991228;28;20190;-74
2022/07/28 13:14:59;;;;;;;1.93;1.77;;;;;;;;;;4991185;28;20811;-74
2022/07/28 13:17:30;;;;;;;6.40;2.47;;;;;;;;;;4976676;28;20410;-74
2022/07/28 13:20:09;;;;;;;7.30;2.60;;;;;;;;;;4989601;28;20425;-75
2022/07/28 13:22:35;;;;;;;2.60;2.03;;;;;;;;;;4976079;28;20409;-75
2022/07/28 13:25:01;;;;;;;3.17;2.97;;;;;;;;;;4991298;28;20458;-74
2022/07/28 13:27:28;;;;;;;4.60;2.07;;;;;;;;;;4976630;28;20476;-74
2022/07/28 13:29:54;;;;;;;2.10;1.80;;;;;;;;;;4975687;28;20469;-74
2022/07/28 13:32:20;;;;;;;2.50;2.40;;;;;;;;;;4973974;28;20429;-74
2022/07/28 13:34:46;;;;;;;4.00;1.97;;;;;;;;;;4979238;28;20488;-74
2022/07/28 13:37:13;;;;;;;1.80;1.80;;;;;;;;;;4976010;28;20477;-75
2022/07/28 13:39:39;;;;;;;2.13;2.10;;;;;;;;;;4976210;28;20794;-74
2022/07/28 13:42:05;;;;;;;2.87;2.77;;;;;;;;;;4975859;28;20414;-75
2022/07/28 13:44:32;;;;;;;2.20;2.07;;;;;;;;;;4975952;28;20860;-74
2022/07/28 13:46:58;;;;;;;2.93;2.60;;;;;;;;;;4975971;28;20456;-74
2022/07/28 13:49:26;;;;;;;8.37;2.50;;;;;;;;;;4975690;28;20945;-74
2022/07/28 13:51:52;;;;;;;2.10;2.03;;;;;;;;;;4990634;28;20781;-74
2022/07/28 13:54:18;;;;;;;5.03;2.50;;;;;;;;;;4974933;28;20540;-74
2022/07/28 13:56:44;;;;;;;2.20;2.10;;;;;;;;;;4975863;28;20898;-75
2022/07/28 13:59:11;;;;;;;4.50;2.70;;;;;;;;;;4975778;28;20434;-74
2022/07/28 14:01:37;;;;;;;2.83;1.93;;;;;;;;;;4974941;28;20442;-74
2022/07/28 14:04:03;;;;;;;3.47;3.27;;;;;;;;;;4975804;28;20466;-75
2022/07/28 14:06:29;;;;;;;1.90;1.90;;;;;;;;;;4974308;28;20430;-76
2022/07/28 14:08:56;;;;;;;3.30;2.53;;;;;;;;;;4976510;28;20448;-74
2022/07/28 14:11:22;;;;;;;2.87;2.57;;;;;;;;;;4975517;28;20793;-79
2022/07/28 14:13:50;;;;;;;4.07;2.27;;;;;;;;;;4970822;28;20482;-79
2022/07/28 14:16:16;;;;;;;5.23;2.50;;;;;;;;;;4975046;28;20417;-80
2022/07/28 14:18:42;;;;;;;2.30;2.20;;;;;;;;;;4974462;28;20803;-80
2022/07/28 14:21:08;;;;;;;3.13;2.20;;;;;;;;;;4975233;28;20424;-79
2022/07/28 14:23:34;;;;;;;3.50;1.80;;;;;;;;;;4974277;28;20261;-79
2022/07/28 14:26:00;;;;;;;2.30;2.30;;;;;;;;;;4974568;28;20452;-81
2022/07/28 14:28:26;;;;;;;2.03;1.93;;;;;;;;;;4974724;28;20433;-80
2022/07/28 14:30:53;;;;;;;2.27;2.17;;;;;;;;;;4974981;28;20794;-75
2022/07/28 14:33:19;;;;;;;9.93;2.20;;;;;;;;;;4973786;28;20225;-80
2022/07/28 14:35:45;;;;;;;4.03;2.60;;;;;;;;;;4973429;28;20433;-79
2022/07/28 14:38:11;;;;;;;5.60;2.47;;;;;;;;;;4974433;28;20430;-78
2022/07/28 14:40:37;;;;;;;3.27;3.00;;;;;;;;;;4974720;28;20473;-81
2022/07/28 14:43:04;;;;;;;16.00;3.53;;;;;;;;;;4974056;28;20430;-81
2022/07/28 14:45:30;;;;;;;2.73;2.63;;;;;;;;;;4974270;28;20891;-81